aviador You're here:

LWSK Decoded Metar

SKOPJE in FORMER MACEDONIA
Report Time2017-12-11 04:00:00
UTC Time2017-12-11 04:04:43
Flight Rules vfr VFR
WindCalm
Visibility9999 m
Phenomena:N/A
Clouds:N/A
Expected CloudBase > 800 ft AGL from Temp-Dew spread
CeilingNone
Temp-4°C (ISA -17)
Dew Point-6°C (86% RH)
AAT-6.7°C
QNH1021 hPa
Density Alt-1,578 ft
Elevation784 ft
Report Wrong Elevation
Raw Report
METAR LWSK 110400Z 00000KT CAVOK M04/M06 Q1021 NOSIG=

Extra information for LWSK:More info

Metar Taf Metar & Taf Last 4 Metars F.Rules Stats Wind Profile Meteogram Temp Stats Airport Information Weather charts Add Link Nearby VenuesMetar ALERT Operation Metar Decoded Social comments

Airport Page